createdAt,value
2023-03-18T00:00:19.651Z,47468.38
2023-03-18T00:05:43.948Z,47472.38
2023-03-18T00:10:52.401Z,47502.34
2023-03-18T00:15:57.276Z,47476.38
2023-03-18T00:21:02.250Z,47484.34
2023-03-18T00:26:09.205Z,47460.38
2023-03-18T00:31:16.321Z,47504.34
2023-03-18T00:36:25.793Z,47478.34
2023-03-18T00:41:36.600Z,47470.38
2023-03-18T00:46:41.297Z,47464.38
2023-03-18T00:51:45.821Z,47464.38
2023-03-18T00:56:51.924Z,47436.41
2023-03-18T01:01:56.469Z,47464.38
2023-03-18T01:07:01.454Z,47490.34
2023-03-18T01:12:08.863Z,47452.38
2023-03-18T01:17:14.319Z,47442.41
2023-03-18T01:22:19.133Z,47472.38
2023-03-18T01:27:28.637Z,47472.38
2023-03-18T01:32:36.929Z,47464.38
2023-03-18T01:37:41.409Z,47454.38
2023-03-18T01:42:57.212Z,47482.34
2023-03-18T01:48:03.368Z,47476.38
2023-03-18T01:53:11.291Z,47480.34
2023-03-18T01:58:20.851Z,47440.41
2023-03-18T02:03:25.306Z,47462.38
2023-03-18T02:08:30.438Z,47454.38
2023-03-18T02:13:45.786Z,47442.41
2023-03-18T02:18:53.380Z,47436.41
2023-03-18T02:24:07.509Z,47434.41
2023-03-18T02:29:16.801Z,47440.41
2023-03-18T02:34:29.849Z,47426.41
2023-03-18T02:39:35.907Z,47442.41
2023-03-18T02:44:47.307Z,47444.41
2023-03-18T02:50:24.601Z,47428.41
2023-03-18T02:55:29.131Z,47428.41
2023-03-18T03:00:34.954Z,47438.41
2023-03-18T03:05:39.550Z,47406.44
2023-03-18T03:10:44.245Z,47400.44
2023-03-18T03:15:51.103Z,47382.47
2023-03-18T03:20:55.575Z,47388.47
2023-03-18T03:25:59.846Z,47388.47
2023-03-18T03:31:07.139Z,47400.44
2023-03-18T03:36:15.432Z,47388.47
2023-03-18T03:41:20.574Z,47376.47
2023-03-18T03:46:28.007Z,47400.44
2023-03-18T03:51:32.636Z,47376.47
2023-03-18T03:56:37.412Z,47362.50
2023-03-18T04:01:43.026Z,47378.47
2023-03-18T04:06:47.602Z,47348.50
2023-03-18T04:11:52.202Z,47360.50
2023-03-18T04:16:58.469Z,47344.53
2023-03-18T04:22:02.958Z,47362.50
2023-03-18T04:27:08.542Z,47338.53
2023-03-18T04:32:14.723Z,47304.56
2023-03-18T04:37:20.291Z,47294.56
2023-03-18T04:42:28.629Z,47276.59
2023-03-18T04:47:36.119Z,47254.63
2023-03-18T04:52:41.014Z,47268.59
2023-03-18T04:57:48.582Z,47230.66
2023-03-18T05:02:57.059Z,47240.66
2023-03-18T05:08:03.360Z,47234.66
2023-03-18T05:13:08.300Z,47202.69
2023-03-18T05:18:16.590Z,47242.63
2023-03-18T05:23:25.143Z,47248.63
2023-03-18T05:28:34.262Z,47236.66
2023-03-18T05:33:49.636Z,47224.66
2023-03-18T05:38:54.600Z,47276.59
2023-03-18T05:43:59.688Z,47264.63
2023-03-18T05:49:06.886Z,47276.59
2023-03-18T05:54:22.220Z,47240.66
2023-03-18T05:59:26.769Z,47228.66
2023-03-18T06:04:37.632Z,47182.72
2023-03-18T06:09:42.022Z,47182.72
2023-03-18T06:14:46.824Z,47208.69
2023-03-18T06:19:54.675Z,47198.69
2023-03-18T06:24:59.340Z,47190.72
2023-03-18T06:30:04.915Z,47152.75
2023-03-18T06:35:14.065Z,47136.78
2023-03-18T06:40:18.761Z,47118.78
2023-03-18T06:45:25.816Z,47052.88
2023-03-18T06:50:39.816Z,47030.91
2023-03-18T07:00:57.288Z,47108.81
2023-03-18T07:06:07.063Z,47168.72
2023-03-18T07:11:11.733Z,47122.78
2023-03-18T07:16:19.215Z,46945.00
2023-03-18T07:21:25.084Z,46967.00
2023-03-18T07:26:29.701Z,46933.03
2023-03-18T07:31:34.086Z,46867.13
2023-03-18T07:36:40.074Z,46949.00
2023-03-18T07:41:44.312Z,46968.97
2023-03-18T07:46:55.735Z,46909.06
2023-03-18T07:52:02.283Z,47022.91
2023-03-18T07:57:07.115Z,47028.91
2023-03-18T08:02:14.692Z,47158.75
2023-03-18T08:07:20.661Z,47196.69
2023-03-18T08:12:24.987Z,47166.72
2023-03-18T08:17:33.218Z,47164.75
2023-03-18T08:22:39.621Z,47206.69
2023-03-18T08:27:44.270Z,47232.66
2023-03-18T08:32:48.929Z,47284.59
2023-03-18T08:37:54.556Z,47246.63
2023-03-18T08:42:58.856Z,47280.59
2023-03-18T08:48:03.191Z,47300.56
2023-03-18T08:53:09.566Z,47312.56
2023-03-18T08:58:13.950Z,47328.53
2023-03-18T09:03:18.140Z,47266.63
2023-03-18T09:08:24.110Z,47298.56
2023-03-18T09:13:28.730Z,47298.56
2023-03-18T09:18:35.532Z,47308.56
2023-03-18T09:23:41.730Z,47262.63
2023-03-18T09:28:46.664Z,47240.66
2023-03-18T09:33:50.864Z,47302.56
2023-03-18T09:38:56.801Z,47316.56
2023-03-18T09:44:15.117Z,47340.53
2023-03-18T09:49:41.177Z,47322.53
2023-03-18T09:54:55.090Z,47316.56
2023-03-18T10:00:09.585Z,47340.53
2023-03-18T10:05:20.966Z,47372.47
2023-03-18T10:10:31.888Z,47388.47
2023-03-18T10:15:41.738Z,47370.50
2023-03-18T10:21:09.853Z,47392.47
2023-03-18T10:26:21.382Z,47402.44
2023-03-18T10:31:41.997Z,47376.47
2023-03-18T10:36:52.443Z,47378.47
2023-03-18T10:42:02.566Z,47386.47
2023-03-18T10:47:15.692Z,47416.44
2023-03-18T10:52:30.840Z,47366.50
2023-03-18T10:57:36.509Z,47396.47
2023-03-18T11:02:41.457Z,47404.44
2023-03-18T11:07:57.953Z,47442.41
2023-03-18T11:13:04.432Z,47444.41
2023-03-18T11:18:19.596Z,47438.41
2023-03-18T11:23:46.538Z,47412.44
2023-03-18T11:28:57.310Z,47396.47
2023-03-18T11:34:02.121Z,47432.41
2023-03-18T11:39:08.377Z,47416.44
2023-03-18T11:44:19.474Z,47394.47
2023-03-18T11:49:27.257Z,47392.47
2023-03-18T11:55:01.427Z,47432.41
2023-03-18T12:00:25.570Z,47436.41
2023-03-18T12:05:44.568Z,47354.50
2023-03-18T12:10:58.677Z,47320.53
2023-03-18T12:16:12.482Z,47324.53
2023-03-18T12:21:36.105Z,47276.59
2023-03-18T12:26:51.209Z,47310.56
2023-03-18T12:32:07.525Z,47362.50
2023-03-18T12:37:25.991Z,47344.53
2023-03-18T12:42:40.400Z,47336.53
2023-03-18T12:47:49.619Z,47368.50
2023-03-18T12:52:58.332Z,47398.44
2023-03-18T12:58:07.646Z,47334.53
2023-03-18T13:03:27.581Z,47390.47
2023-03-18T13:08:58.017Z,47388.47
2023-03-18T13:14:07.156Z,47356.50
2023-03-18T13:19:13.176Z,47374.47
2023-03-18T13:24:54.363Z,47384.47
2023-03-18T13:30:06.366Z,47384.47
2023-03-18T13:35:50.796Z,47356.50
2023-03-18T13:41:24.659Z,47416.44
2023-03-18T13:46:33.106Z,47408.44
2023-03-18T13:52:02.461Z,47418.44
2023-03-18T13:57:36.072Z,47426.41
2023-03-18T14:02:48.148Z,47444.41
2023-03-18T14:07:53.031Z,47420.44
2023-03-18T14:13:18.692Z,47432.41
2023-03-18T14:18:29.098Z,47442.41
2023-03-18T14:23:43.151Z,47412.44
2023-03-18T14:28:52.082Z,47430.41
2023-03-18T14:34:04.498Z,47428.41
2023-03-18T14:39:10.580Z,47444.41
2023-03-18T14:44:24.101Z,47460.38
2023-03-18T14:49:45.112Z,47428.41
2023-03-18T14:54:54.129Z,47466.38
2023-03-18T15:00:01.924Z,47470.38
2023-03-18T15:05:07.948Z,47470.38
2023-03-18T15:10:17.435Z,47506.31
2023-03-18T15:15:25.722Z,47500.34
2023-03-18T15:20:30.599Z,47476.38
2023-03-18T15:25:35.040Z,47524.31
2023-03-18T15:30:40.681Z,47516.31
2023-03-18T15:35:46.351Z,47522.31
2023-03-18T15:40:52.734Z,47516.31
2023-03-18T15:46:01.236Z,47538.28
2023-03-18T15:51:09.925Z,47536.28
2023-03-18T15:56:18.466Z,47524.31
2023-03-18T16:01:24.840Z,47560.28
2023-03-18T16:06:29.796Z,47556.28
2023-03-18T16:11:37.116Z,47548.28
2023-03-18T16:16:42.798Z,47576.25
2023-03-18T16:21:47.022Z,47594.22
2023-03-18T16:26:51.837Z,47568.25
2023-03-18T16:31:57.670Z,47588.22
2023-03-18T16:37:02.434Z,47572.25
2023-03-18T16:42:07.504Z,47584.25
2023-03-18T16:47:22.811Z,47614.22
2023-03-18T16:52:26.957Z,47594.22
2023-03-18T16:57:31.430Z,47590.22
2023-03-18T17:02:38.303Z,47582.25
2023-03-18T17:07:42.843Z,47556.28
2023-03-18T17:12:51.539Z,47560.28
2023-03-18T17:17:58.804Z,47588.22
2023-03-18T17:23:04.263Z,47610.22
2023-03-18T17:28:09.063Z,47564.25
2023-03-18T17:33:24.246Z,47566.25
2023-03-18T17:38:33.955Z,47588.22
2023-03-18T17:43:39.157Z,47588.22
2023-03-18T17:48:45.620Z,47598.22
2023-03-18T17:53:51.570Z,47582.25
2023-03-18T17:58:55.878Z,47618.19
2023-03-18T18:04:03.202Z,47618.19
2023-03-18T18:09:07.935Z,47648.16
2023-03-18T18:14:19.258Z,47638.19
2023-03-18T18:19:25.427Z,47616.19
2023-03-18T18:24:31.845Z,47652.16
2023-03-18T18:29:38.081Z,47644.16
2023-03-18T18:34:43.684Z,47648.16
2023-03-18T18:39:48.331Z,47656.16
2023-03-18T18:44:53.001Z,47686.13
2023-03-18T18:49:58.747Z,47640.19
2023-03-18T18:55:03.055Z,47638.19
2023-03-18T19:00:11.597Z,47644.16
2023-03-18T19:05:17.986Z,47672.13
2023-03-18T19:10:22.176Z,47664.16
2023-03-18T19:15:26.577Z,47658.16
2023-03-18T19:20:32.767Z,47666.16
2023-03-18T19:25:36.975Z,47678.13
2023-03-18T19:30:41.190Z,47654.16
2023-03-18T19:35:47.645Z,47644.16
2023-03-18T19:40:53.384Z,47630.19
2023-03-18T19:45:57.790Z,47642.19
2023-03-18T19:51:03.624Z,47628.19
2023-03-18T19:56:20.660Z,47650.16
2023-03-18T20:01:25.559Z,47660.16
2023-03-18T20:06:31.525Z,47640.19
2023-03-18T20:11:36.560Z,47644.16
2023-03-18T20:16:40.851Z,47628.19
2023-03-18T20:21:46.869Z,47632.19
2023-03-18T20:26:51.769Z,47648.16
2023-03-18T20:31:56.888Z,47646.16
2023-03-18T20:37:03.100Z,47644.16
2023-03-18T20:42:14.041Z,47626.19
2023-03-18T20:47:18.579Z,47642.19
2023-03-18T20:52:29.245Z,47642.19
2023-03-18T20:57:33.531Z,47652.16
2023-03-18T21:02:37.981Z,47636.19
2023-03-18T21:07:44.463Z,47634.19
2023-03-18T21:12:49.974Z,47616.19
2023-03-18T21:17:54.389Z,47634.19
2023-03-18T21:23:00.121Z,47616.19
2023-03-18T21:28:04.601Z,47646.16
2023-03-18T21:33:20.178Z,47660.16
2023-03-18T21:38:26.486Z,47616.19
2023-03-18T21:43:33.993Z,47620.19
2023-03-18T21:48:38.243Z,47642.19
2023-03-18T21:53:44.451Z,47626.19
2023-03-18T21:58:49.362Z,47644.16
2023-03-18T22:03:54.583Z,47644.16
2023-03-18T22:09:00.700Z,47642.19
2023-03-18T22:14:05.174Z,47644.16
2023-03-18T22:19:09.285Z,47648.16
2023-03-18T22:24:16.488Z,47654.16
2023-03-18T22:29:20.713Z,47640.19
2023-03-18T22:34:25.290Z,47646.16
2023-03-18T22:39:31.040Z,47654.16
2023-03-18T22:44:35.413Z,47666.16
2023-03-18T22:49:40.110Z,47642.19
2023-03-18T22:54:45.945Z,47662.16
2023-03-18T22:59:50.520Z,47654.16
2023-03-18T23:04:57.816Z,47668.16
2023-03-18T23:10:05.211Z,47678.13
2023-03-18T23:15:15.805Z,47670.16
2023-03-18T23:20:20.275Z,47686.13
2023-03-18T23:25:26.244Z,47678.13
2023-03-18T23:30:30.853Z,47696.13
2023-03-18T23:35:36.512Z,47674.13
2023-03-18T23:40:42.636Z,47696.13
2023-03-18T23:45:47.169Z,47694.13
2023-03-18T23:50:51.346Z,47680.13
2023-03-18T23:55:57.248Z,47656.16
